Time;durP1;ratioP1;P1;durP2;ratioP2;P2;SDS_P1;SDS_P2;PMS_P1;PMS_P2;Temp;Humidity;BMP_temperature;BMP_pressure;BME280_temperature;BME280_humidity;BME280_pressure;Samples;Min_cycle;Max_cycle;Signal;HPM_P1;HPM_P2
2023/04/19 00:00:58;;;;;;;8.02;5.60;;;8.20;99.90;;;;;;5053222;28;20049;-77
2023/04/19 00:03:24;;;;;;;8.05;5.65;;;8.10;99.90;;;;;;5052766;28;20068;-77
2023/04/19 00:05:52;;;;;;;8.20;5.60;;;8.10;99.90;;;;;;5053808;28;20041;-77
2023/04/19 00:08:18;;;;;;;7.80;5.88;;;8.10;99.90;;;;;;5052601;28;20492;-77
2023/04/19 00:10:43;;;;;;;8.48;5.80;;;8.10;99.90;;;;;;5053673;28;20048;-77
2023/04/19 00:13:09;;;;;;;10.18;5.93;;;8.10;99.90;;;;;;5052395;28;20044;-78
2023/04/19 00:15:37;;;;;;;9.25;5.50;;;8.10;99.90;;;;;;5052570;28;20044;-77
2023/04/19 00:18:02;;;;;;;7.63;5.55;;;8.00;99.90;;;;;;5053306;28;20400;-77
2023/04/19 00:20:28;;;;;;;10.13;6.32;;;7.90;99.90;;;;;;5053510;28;20052;-77
2023/04/19 00:22:54;;;;;;;8.65;5.75;;;7.90;99.90;;;;;;5052283;28;20075;-77
2023/04/19 00:25:19;;;;;;;9.45;6.05;;;7.90;99.90;;;;;;5052205;28;20059;-77
2023/04/19 00:27:45;;;;;;;9.25;6.18;;;7.90;99.90;;;;;;5051913;28;20041;-77
2023/04/19 00:30:11;;;;;;;8.10;5.97;;;7.90;99.90;;;;;;5053285;28;20497;-77
2023/04/19 00:32:36;;;;;;;9.05;6.00;;;7.90;99.90;;;;;;5051942;28;20037;-77
2023/04/19 00:35:02;;;;;;;8.48;5.65;;;7.90;99.90;;;;;;5052057;28;20052;-77
2023/04/19 00:37:28;;;;;;;8.52;6.25;;;7.90;99.90;;;;;;5051733;28;20112;-77
2023/04/19 00:39:54;;;;;;;10.52;6.30;;;7.90;99.90;;;;;;5053256;28;20163;-77
2023/04/19 00:42:19;;;;;;;10.20;6.78;;;7.80;99.90;;;;;;5052002;28;20045;-77
2023/04/19 00:44:45;;;;;;;9.00;6.97;;;7.80;99.90;;;;;;5052029;28;20484;-77
2023/04/19 00:47:11;;;;;;;10.45;6.38;;;7.80;99.90;;;;;;5051729;28;20053;-76
2023/04/19 00:49:37;;;;;;;9.82;6.55;;;7.70;99.90;;;;;;5051601;28;20053;-77
2023/04/19 00:52:03;;;;;;;11.38;7.68;;;7.70;99.90;;;;;;5051998;28;20545;-77
2023/04/19 00:54:29;;;;;;;10.40;6.75;;;7.70;99.90;;;;;;5051432;28;20037;-77
2023/04/19 00:56:55;;;;;;;10.65;7.18;;;7.70;99.90;;;;;;5048991;28;20048;-77
2023/04/19 00:59:21;;;;;;;10.43;7.13;;;7.70;99.90;;;;;;5052923;28;20508;-77
2023/04/19 01:01:47;;;;;;;11.65;7.00;;;7.70;99.90;;;;;;5051954;28;20076;-79
2023/04/19 01:04:12;;;;;;;10.07;7.53;;;7.70;99.90;;;;;;5052012;28;20047;-77
2023/04/19 01:06:40;;;;;;;11.68;7.53;;;7.70;99.90;;;;;;5051721;28;20086;-77
2023/04/19 01:09:05;;;;;;;9.30;7.00;;;7.70;99.90;;;;;;5051022;28;20150;-78
2023/04/19 01:11:31;;;;;;;12.07;7.78;;;7.60;99.90;;;;;;5050295;28;20112;-78
2023/04/19 01:13:57;;;;;;;9.07;6.75;;;7.60;99.90;;;;;;5052495;28;20044;-77
2023/04/19 01:16:27;;;;;;;9.90;7.72;;;7.60;99.90;;;;;;5051159;28;20112;-77
2023/04/19 01:18:53;;;;;;;12.20;7.80;;;7.50;99.90;;;;;;5034360;28;20045;-77
2023/04/19 01:21:21;;;;;;;11.70;8.05;;;7.50;99.90;;;;;;5051220;28;20051;-77
2023/04/19 01:23:46;;;;;;;10.75;7.75;;;7.50;99.90;;;;;;5051203;28;20049;-76
2023/04/19 01:26:12;;;;;;;11.68;8.00;;;7.50;99.90;;;;;;5050940;28;20041;-77
2023/04/19 01:28:37;;;;;;;12.60;8.18;;;7.50;99.90;;;;;;5050826;28;20040;-77
2023/04/19 01:31:03;;;;;;;12.93;8.90;;;7.50;99.90;;;;;;5050875;28;20086;-77
2023/04/19 01:33:29;;;;;;;14.20;9.27;;;7.50;99.90;;;;;;5051343;28;20055;-77
2023/04/19 01:35:54;;;;;;;12.02;8.90;;;7.50;99.90;;;;;;5052438;28;20036;-78
2023/04/19 01:38:20;;;;;;;16.27;9.98;;;7.40;99.90;;;;;;5050811;28;20136;-78
2023/04/19 01:40:45;;;;;;;13.65;9.80;;;7.50;99.90;;;;;;5051063;28;20102;-78
2023/04/19 01:43:13;;;;;;;13.93;9.48;;;7.50;99.90;;;;;;5051051;28;20126;-77
2023/04/19 01:45:38;;;;;;;12.65;9.27;;;7.50;99.90;;;;;;5050721;28;20049;-77
2023/04/19 01:48:04;;;;;;;13.43;9.23;;;7.40;99.90;;;;;;5051780;28;20037;-77
2023/04/19 01:50:30;;;;;;;14.55;10.18;;;7.40;99.90;;;;;;5050790;28;20122;-76
2023/04/19 01:52:56;;;;;;;14.63;10.23;;;7.40;99.90;;;;;;5051955;28;20052;-78
2023/04/19 01:55:22;;;;;;;14.45;9.10;;;7.30;99.90;;;;;;5054537;28;20045;-79
2023/04/19 01:57:47;;;;;;;13.63;9.00;;;7.40;99.90;;;;;;5060505;28;20400;-77
2023/04/19 02:00:14;;;;;;;12.57;9.13;;;7.30;99.90;;;;;;5050314;28;20098;-77
2023/04/19 02:02:40;;;;;;;14.60;9.50;;;7.30;99.90;;;;;;5051832;28;20381;-77
2023/04/19 02:05:06;;;;;;;14.70;9.57;;;7.30;99.90;;;;;;5050637;28;20120;-77
2023/04/19 02:07:32;;;;;;;12.90;9.13;;;7.30;99.90;;;;;;5051773;28;20039;-77
2023/04/19 02:10:00;;;;;;;13.73;8.75;;;7.30;99.90;;;;;;5050395;28;20049;-77
2023/04/19 02:12:35;;;;;;;12.05;8.95;;;7.20;99.90;;;;;;5050168;28;20087;-77
2023/04/19 02:15:01;;;;;;;13.13;8.98;;;7.20;99.90;;;;;;5050248;28;20115;-77
2023/04/19 02:17:27;;;;;;;11.38;8.77;;;7.20;99.90;;;;;;5051268;28;20437;-78
2023/04/19 02:19:52;;;;;;;11.80;8.45;;;7.20;99.90;;;;;;5051636;28;20045;-77
2023/04/19 02:22:18;;;;;;;13.82;9.43;;;7.10;99.90;;;;;;5051167;28;20037;-77
2023/04/19 02:24:44;;;;;;;13.45;9.00;;;7.20;99.90;;;;;;5050059;28;20052;-77
2023/04/19 02:27:10;;;;;;;11.32;8.50;;;7.10;99.90;;;;;;5051748;28;20424;-78
2023/04/19 02:29:37;;;;;;;13.55;9.02;;;7.10;99.90;;;;;;5051248;28;20080;-77
2023/04/19 02:32:04;;;;;;;12.73;8.70;;;7.00;99.90;;;;;;5050063;28;20051;-77
2023/04/19 02:34:30;;;;;;;12.60;8.60;;;7.00;99.90;;;;;;5050244;28;20045;-78
2023/04/19 02:36:56;;;;;;;13.60;8.32;;;6.90;99.90;;;;;;5050022;28;20124;-77
2023/04/19 02:39:22;;;;;;;11.75;8.90;;;6.90;99.90;;;;;;5049940;28;20048;-77
2023/04/19 02:41:48;;;;;;;10.80;7.65;;;6.90;99.90;;;;;;5051340;28;20044;-78
2023/04/19 02:44:14;;;;;;;10.68;7.30;;;6.90;99.90;;;;;;5051461;28;20408;-77
2023/04/19 02:46:39;;;;;;;14.13;7.53;;;6.80;99.90;;;;;;5050198;28;20140;-78
2023/04/19 02:49:05;;;;;;;10.52;7.35;;;6.80;99.90;;;;;;5049819;28;20045;-77
2023/04/19 02:51:30;;;;;;;11.68;6.90;;;6.80;99.90;;;;;;5051315;28;20152;-78
2023/04/19 02:53:56;;;;;;;12.05;7.15;;;6.80;99.90;;;;;;5050204;28;20476;-76
2023/04/19 02:56:22;;;;;;;10.25;6.63;;;6.80;99.90;;;;;;5062067;28;20044;-78
2023/04/19 02:58:47;;;;;;;11.27;6.82;;;6.70;99.90;;;;;;5052816;28;20072;-78
2023/04/19 03:01:13;;;;;;;9.82;6.63;;;6.70;99.90;;;;;;5049987;28;20049;-78
2023/04/19 03:03:38;;;;;;;10.80;6.82;;;6.70;99.90;;;;;;5051045;28;20049;-77
2023/04/19 03:06:04;;;;;;;8.60;5.90;;;6.70;99.90;;;;;;5051479;28;20124;-78
2023/04/19 03:08:29;;;;;;;9.45;6.47;;;6.60;99.90;;;;;;5049757;28;20056;-77
2023/04/19 03:10:55;;;;;;;9.20;6.15;;;6.60;99.90;;;;;;5051131;28;20036;-77
2023/04/19 03:13:20;;;;;;;9.30;6.38;;;6.50;99.90;;;;;;5050952;28;20056;-78
2023/04/19 03:15:46;;;;;;;9.35;5.97;;;6.50;99.90;;;;;;5051177;28;20025;-77
2023/04/19 03:18:12;;;;;;;9.48;6.15;;;6.50;99.90;;;;;;5051004;28;20391;-78
2023/04/19 03:20:38;;;;;;;9.50;6.50;;;6.40;99.90;;;;;;5050266;28;20119;-79
2023/04/19 03:23:03;;;;;;;9.02;6.10;;;6.40;99.90;;;;;;5051428;28;20087;-78
2023/04/19 03:25:29;;;;;;;9.77;6.28;;;6.40;99.90;;;;;;5051165;28;20043;-77
2023/04/19 03:27:55;;;;;;;9.27;5.93;;;6.30;99.90;;;;;;5049521;28;20041;-77
2023/04/19 03:30:21;;;;;;;9.80;5.93;;;6.30;99.90;;;;;;5049699;28;20128;-77
2023/04/19 03:32:47;;;;;;;12.23;6.57;;;6.30;99.90;;;;;;5049726;28;20439;-77
2023/04/19 03:35:12;;;;;;;8.60;6.35;;;6.30;99.90;;;;;;5052030;28;20037;-79
2023/04/19 03:37:38;;;;;;;8.90;6.32;;;6.20;99.90;;;;;;5054429;28;20037;-79
2023/04/19 03:40:04;;;;;;;10.20;6.22;;;6.20;99.90;;;;;;5054567;28;20043;-78
2023/04/19 03:42:30;;;;;;;9.20;6.10;;;6.10;99.90;;;;;;5053339;28;20049;-77
2023/04/19 03:44:56;;;;;;;8.10;6.45;;;6.10;99.90;;;;;;5053564;28;20051;-78
2023/04/19 03:47:21;;;;;;;10.05;6.35;;;6.10;99.90;;;;;;5053601;28;20120;-79
2023/04/19 03:49:47;;;;;;;10.50;6.50;;;6.00;99.90;;;;;;5053121;28;20048;-77
2023/04/19 03:52:13;;;;;;;10.70;6.70;;;6.00;99.90;;;;;;5053876;28;20438;-77
2023/04/19 03:54:38;;;;;;;9.90;6.60;;;5.90;99.90;;;;;;5053581;28;20045;-78
2023/04/19 03:57:04;;;;;;;9.73;6.43;;;5.90;99.90;;;;;;5068415;28;20025;-79
2023/04/19 03:59:30;;;;;;;11.88;6.65;;;5.90;99.90;;;;;;5053215;28;20127;-78
2023/04/19 04:01:55;;;;;;;9.35;6.50;;;5.80;99.90;;;;;;5054600;28;20515;-79
2023/04/19 04:04:22;;;;;;;8.55;6.15;;;5.80;99.90;;;;;;5053136;28;20060;-79
2023/04/19 04:06:48;;;;;;;8.55;6.00;;;5.80;99.90;;;;;;5053202;28;20457;-78
2023/04/19 04:09:13;;;;;;;9.52;6.47;;;5.70;99.90;;;;;;5053415;28;20063;-78
2023/04/19 04:11:39;;;;;;;8.45;6.00;;;5.70;99.90;;;;;;5053268;28;20051;-78
2023/04/19 04:14:05;;;;;;;8.88;6.50;;;5.70;99.90;;;;;;5053218;28;20326;-79
2023/04/19 04:16:31;;;;;;;8.68;6.30;;;5.60;99.90;;;;;;5053031;28;20041;-79
2023/04/19 04:18:56;;;;;;;8.77;6.05;;;5.60;99.90;;;;;;5054366;28;20101;-78
2023/04/19 04:21:23;;;;;;;9.32;6.10;;;5.60;99.90;;;;;;5053319;28;20101;-78
2023/04/19 04:23:49;;;;;;;9.23;5.95;;;5.60;99.90;;;;;;5054236;28;20563;-78
2023/04/19 04:26:14;;;;;;;8.02;5.88;;;5.60;99.90;;;;;;5054343;28;20041;-79
2023/04/19 04:28:40;;;;;;;9.57;5.70;;;5.60;99.90;;;;;;5054360;28;20037;-78
2023/04/19 04:31:05;;;;;;;10.13;6.65;;;5.60;99.90;;;;;;5053035;28;20485;-79
2023/04/19 04:33:31;;;;;;;8.40;5.75;;;5.60;99.90;;;;;;5053627;28;20413;-79
2023/04/19 04:35:57;;;;;;;9.98;5.80;;;5.60;99.90;;;;;;5052643;28;20416;-79
2023/04/19 04:38:23;;;;;;;9.38;5.65;;;5.60;99.90;;;;;;5052721;28;20044;-78
2023/04/19 04:40:53;;;;;;;9.00;5.82;;;5.60;99.90;;;;;;5053112;28;20052;-79
2023/04/19 04:43:20;;;;;;;10.52;5.97;;;5.60;99.90;;;;;;5052956;28;20124;-78
2023/04/19 04:45:46;;;;;;;10.40;5.82;;;5.60;99.90;;;;;;5052720;28;20057;-78
2023/04/19 04:48:12;;;;;;;9.57;5.45;;;5.60;99.90;;;;;;5052567;28;20047;-79
2023/04/19 04:50:38;;;;;;;8.90;5.65;;;5.60;99.90;;;;;;5052820;28;20460;-80
2023/04/19 04:53:03;;;;;;;7.65;5.40;;;5.60;99.90;;;;;;5053139;28;20068;-79
2023/04/19 04:55:29;;;;;;;7.80;5.18;;;5.60;99.90;;;;;;5059591;28;20412;-79
2023/04/19 04:57:55;;;;;;;8.20;5.32;;;5.60;99.90;;;;;;5063117;28;20404;-78
2023/04/19 05:00:21;;;;;;;8.30;5.05;;;5.70;99.90;;;;;;5054627;28;20041;-78
2023/04/19 05:02:47;;;;;;;7.68;4.97;;;5.70;99.90;;;;;;5052846;28;20045;-79
2023/04/19 05:05:12;;;;;;;7.55;4.88;;;5.70;99.90;;;;;;5052976;28;20389;-79
2023/04/19 05:07:39;;;;;;;6.95;4.78;;;5.70;99.90;;;;;;5053461;28;20049;-79
2023/04/19 05:10:05;;;;;;;7.20;4.60;;;5.80;99.90;;;;;;5052932;28;20048;-78
2023/04/19 05:12:31;;;;;;;8.60;4.78;;;5.90;99.90;;;;;;5052230;28;20528;-79
2023/04/19 05:14:56;;;;;;;7.07;4.78;;;5.90;99.90;;;;;;5054606;28;20041;-80
2023/04/19 05:17:22;;;;;;;7.88;4.70;;;5.90;99.90;;;;;;5053876;28;20043;-79
2023/04/19 05:19:47;;;;;;;7.88;5.40;;;6.00;99.90;;;;;;5052743;28;20044;-78
2023/04/19 05:22:13;;;;;;;6.35;4.20;;;6.00;99.90;;;;;;5054182;28;20076;-78
2023/04/19 05:24:39;;;;;;;6.90;4.10;;;6.10;99.90;;;;;;5052686;28;20048;-79
2023/04/19 05:27:04;;;;;;;6.07;4.28;;;6.10;99.90;;;;;;5054514;28;20121;-79
2023/04/19 05:29:31;;;;;;;6.90;4.28;;;6.20;99.90;;;;;;5054280;28;20128;-79
2023/04/19 05:31:57;;;;;;;6.80;4.60;;;6.30;99.90;;;;;;5036431;28;20041;-80
2023/04/19 05:34:22;;;;;;;6.57;4.25;;;6.30;99.90;;;;;;5052732;28;20055;-79
2023/04/19 05:36:48;;;;;;;6.22;4.25;;;6.40;99.90;;;;;;5052350;28;20047;-78
2023/04/19 05:39:14;;;;;;;5.78;4.30;;;6.50;99.90;;;;;;5053953;28;20044;-79
2023/04/19 05:41:39;;;;;;;5.95;4.15;;;6.50;99.90;;;;;;5056634;28;20044;-79
2023/04/19 05:44:05;;;;;;;6.10;4.32;;;6.60;99.90;;;;;;5054812;28;20041;-78
2023/04/19 05:46:31;;;;;;;6.55;4.50;;;6.70;99.90;;;;;;5054071;28;20052;-78
2023/04/19 05:48:56;;;;;;;6.63;4.30;;;6.80;99.90;;;;;;5053680;28;20052;-79
2023/04/19 05:51:22;;;;;;;6.15;4.22;;;6.80;99.90;;;;;;5055894;28;20037;-79
2023/04/19 05:53:47;;;;;;;5.82;3.80;;;6.90;99.90;;;;;;5054504;28;20068;-78
2023/04/19 05:56:13;;;;;;;6.50;4.57;;;7.00;99.90;;;;;;5067499;28;20048;-79
2023/04/19 05:58:38;;;;;;;6.68;3.78;;;7.10;99.90;;;;;;5056126;28;20055;-80
2023/04/19 06:01:05;;;;;;;8.63;4.60;;;7.10;99.90;;;;;;5053140;28;20155;-79
2023/04/19 06:03:32;;;;;;;8.70;4.68;;;7.10;99.90;;;;;;5053547;28;20370;-79
2023/04/19 06:05:57;;;;;;;5.82;4.10;;;7.20;99.90;;;;;;5054766;28;20040;-79
2023/04/19 06:08:23;;;;;;;6.68;4.40;;;7.20;99.90;;;;;;5053484;28;20051;-80
2023/04/19 06:10:49;;;;;;;6.05;3.60;;;7.30;99.90;;;;;;5054095;28;20048;-79
2023/04/19 06:13:14;;;;;;;5.13;3.67;;;7.40;99.90;;;;;;5057154;28;20045;-79
2023/04/19 06:15:40;;;;;;;6.20;3.67;;;7.40;99.90;;;;;;5053793;28;20063;-79
2023/04/19 06:18:09;;;;;;;5.00;3.60;;;7.50;99.90;;;;;;5054701;28;20025;-79
2023/04/19 06:20:39;;;;;;;6.30;3.85;;;7.50;99.90;;;;;;5053074;28;20100;-79
2023/04/19 06:23:06;;;;;;;5.05;3.65;;;7.60;99.90;;;;;;5053225;28;20041;-78
2023/04/19 06:25:31;;;;;;;5.93;3.80;;;7.60;99.90;;;;;;5055643;28;20055;-78
2023/04/19 06:27:57;;;;;;;5.15;3.67;;;7.70;99.90;;;;;;5055255;28;20068;-81
2023/04/19 06:30:23;;;;;;;10.00;3.80;;;7.80;99.90;;;;;;5053118;28;20128;-79
2023/04/19 06:32:48;;;;;;;6.68;3.50;;;7.80;99.90;;;;;;5052679;28;20037;-81
2023/04/19 06:35:14;;;;;;;5.25;3.67;;;7.90;99.90;;;;;;5053713;28;20029;-78
2023/04/19 06:37:40;;;;;;;7.07;3.72;;;7.90;99.90;;;;;;5051877;28;20438;-77
2023/04/19 06:40:07;;;;;;;5.60;3.58;;;8.00;99.90;;;;;;5051662;28;20036;-78
2023/04/19 06:42:36;;;;;;;5.50;3.30;;;8.10;99.90;;;;;;5052486;28;20072;-78
2023/04/19 06:45:01;;;;;;;5.75;3.15;;;8.10;99.90;;;;;;5052354;28;20515;-78
2023/04/19 06:47:28;;;;;;;5.93;3.58;;;8.20;99.90;;;;;;5052531;28;20041;-79
2023/04/19 06:49:54;;;;;;;6.07;3.60;;;8.30;99.90;;;;;;5050982;28;20108;-78
2023/04/19 06:52:20;;;;;;;4.65;3.40;;;8.40;99.90;;;;;;5053377;28;20076;-77
2023/04/19 06:54:50;;;;;;;6.20;3.25;;;8.50;99.90;;;;;;5052783;28;20067;-78
2023/04/19 06:57:16;;;;;;;4.65;3.25;;;8.60;99.90;;;;;;5066103;28;20037;-80
2023/04/19 06:59:42;;;;;;;5.82;3.40;;;8.70;99.90;;;;;;5054318;28;20099;-79
2023/04/19 07:02:08;;;;;;;5.45;3.47;;;8.70;99.90;;;;;;5054121;28;20447;-79
2023/04/19 07:04:33;;;;;;;4.32;2.90;;;8.80;99.90;;;;;;5053312;28;20049;-79
2023/04/19 07:06:59;;;;;;;5.28;2.78;;;8.90;99.90;;;;;;5052737;28;20044;-80
2023/04/19 07:09:25;;;;;;;5.10;3.17;;;9.00;99.90;;;;;;5056539;28;20064;-78
2023/04/19 07:11:51;;;;;;;4.85;3.00;;;9.10;99.90;;;;;;5056546;28;20048;-79
2023/04/19 07:14:20;;;;;;;5.63;2.83;;;9.10;99.90;;;;;;5056521;28;20037;-78
2023/04/19 07:16:46;;;;;;;4.95;3.22;;;9.30;99.90;;;;;;5057936;28;20048;-78
2023/04/19 07:19:12;;;;;;;3.70;2.75;;;9.40;99.90;;;;;;5056187;28;20095;-78
2023/04/19 07:21:38;;;;;;;5.40;2.45;;;9.40;99.90;;;;;;5057899;28;20036;-79
2023/04/19 07:24:05;;;;;;;3.35;2.22;;;9.50;99.90;;;;;;5056250;28;20055;-79
2023/04/19 07:26:31;;;;;;;3.00;2.20;;;9.60;99.90;;;;;;5056715;28;20045;-78
2023/04/19 07:28:57;;;;;;;3.20;2.20;;;9.70;99.90;;;;;;5057496;28;20052;-78
2023/04/19 07:31:24;;;;;;;5.45;2.60;;;9.70;99.90;;;;;;5055858;28;20037;-78
2023/04/19 07:33:50;;;;;;;4.22;2.83;;;9.80;99.90;;;;;;5055320;28;20037;-78
2023/04/19 07:36:16;;;;;;;3.78;2.25;;;9.90;99.90;;;;;;5055764;28;20120;-78
2023/04/19 07:38:41;;;;;;;4.47;2.45;;;10.00;99.90;;;;;;5056741;28;20123;-79
2023/04/19 07:41:07;;;;;;;3.67;2.47;;;10.10;99.90;;;;;;5055895;28;20554;-78
2023/04/19 07:43:33;;;;;;;4.75;2.22;;;10.10;99.90;;;;;;5057117;28;20079;-78
2023/04/19 07:45:59;;;;;;;4.32;2.90;;;10.30;99.90;;;;;;5055276;28;20097;-78
2023/04/19 07:48:25;;;;;;;6.65;2.53;;;10.40;99.90;;;;;;5054871;28;20036;-79
2023/04/19 07:50:50;;;;;;;4.95;2.60;;;10.50;99.90;;;;;;5055243;28;20041;-79
2023/04/19 07:53:17;;;;;;;5.18;2.47;;;10.60;99.90;;;;;;5055050;28;20084;-79
2023/04/19 07:55:43;;;;;;;3.65;2.20;;;10.70;99.90;;;;;;5063077;28;20048;-79
2023/04/19 07:58:08;;;;;;;3.78;2.55;;;10.80;99.90;;;;;;5061926;28;20036;-79
2023/04/19 08:00:35;;;;;;;3.65;2.28;;;10.90;99.90;;;;;;5056140;28;20518;-79
2023/04/19 08:03:02;;;;;;;3.90;2.45;;;11.00;99.90;;;;;;5054584;28;20056;-79
2023/04/19 08:05:28;;;;;;;5.05;2.38;;;11.00;99.90;;;;;;5055723;28;20045;-78
2023/04/19 08:07:55;;;;;;;4.57;2.75;;;11.10;99.90;;;;;;5054175;28;20037;-79
2023/04/19 08:10:21;;;;;;;4.90;2.38;;;11.20;99.90;;;;;;5054196;28;20049;-78
2023/04/19 08:12:48;;;;;;;3.47;2.13;;;11.20;99.90;;;;;;5054631;28;20478;-78
2023/04/19 08:15:14;;;;;;;3.03;2.03;;;11.20;99.90;;;;;;5055050;28;20120;-78
2023/04/19 08:17:43;;;;;;;4.18;2.25;;;11.20;99.90;;;;;;5054947;28;20373;-79
2023/04/19 08:20:13;;;;;;;4.80;2.40;;;11.30;99.90;;;;;;5052847;28;20045;-78
2023/04/19 08:22:39;;;;;;;4.07;2.10;;;11.40;99.90;;;;;;5053150;28;20041;-78
2023/04/19 08:25:06;;;;;;;4.93;2.20;;;11.40;99.90;;;;;;5052848;28;20049;-77
2023/04/19 08:27:31;;;;;;;5.20;2.38;;;11.50;99.90;;;;;;5052978;28;20076;-77
2023/04/19 08:29:57;;;;;;;3.13;2.40;;;11.50;99.90;;;;;;5054203;28;20547;-77
2023/04/19 08:32:22;;;;;;;3.03;2.03;;;11.60;99.90;;;;;;5052983;28;20044;-78
2023/04/19 08:34:48;;;;;;;3.88;2.20;;;11.70;99.90;;;;;;5053572;28;20041;-77
2023/04/19 08:37:14;;;;;;;4.82;2.40;;;11.70;99.90;;;;;;5054593;28;20048;-78
2023/04/19 08:39:40;;;;;;;10.35;2.75;;;11.80;99.90;;;;;;5053005;28;20484;-77
2023/04/19 08:42:07;;;;;;;2.42;1.70;;;11.90;99.90;;;;;;5053200;28;20102;-78
2023/04/19 08:44:35;;;;;;;4.70;1.90;;;11.90;99.90;;;;;;5054431;28;20470;-78
2023/04/19 08:47:00;;;;;;;3.70;2.03;;;12.00;99.90;;;;;;5052951;28;20075;-79
2023/04/19 08:49:30;;;;;;;3.13;1.75;;;12.00;99.90;;;;;;5054285;28;20411;-79
2023/04/19 08:52:00;;;;;;;4.63;2.00;;;12.00;99.90;;;;;;5053385;28;20412;-79
2023/04/19 08:54:27;;;;;;;3.63;1.90;;;12.00;99.90;;;;;;5054200;28;20044;-79
2023/04/19 08:56:53;;;;;;;2.08;1.55;;;12.00;99.90;;;;;;5069302;28;20048;-79
2023/04/19 08:59:19;;;;;;;4.47;1.90;;;12.20;99.90;;;;;;5053652;28;20059;-78
2023/04/19 09:01:45;;;;;;;4.05;1.80;;;12.30;99.90;;;;;;5055324;28;20083;-78
2023/04/19 09:04:10;;;;;;;3.75;2.00;;;12.40;99.90;;;;;;5053148;28;20029;-79
2023/04/19 09:06:40;;;;;;;2.55;1.80;;;12.50;99.90;;;;;;5053367;28;20120;-78
2023/04/19 09:09:18;;;;;;;2.65;1.75;;;12.50;99.90;;;;;;5055248;28;20043;-80
2023/04/19 09:11:44;;;;;;;2.78;1.77;;;12.70;99.90;;;;;;5055854;28;20450;-80
2023/04/19 09:14:13;;;;;;;2.55;1.65;;;12.80;99.90;;;;;;5055005;28;20112;-78
2023/04/19 09:16:38;;;;;;;3.17;1.90;;;12.90;99.90;;;;;;5053135;28;20047;-78
2023/04/19 09:19:05;;;;;;;5.30;1.75;;;12.90;99.90;;;;;;5053466;28;20036;-80
2023/04/19 09:21:33;;;;;;;7.43;1.77;;;12.80;99.90;;;;;;5053980;28;20522;-78
2023/04/19 09:23:59;;;;;;;3.13;1.40;;;12.80;99.90;;;;;;5053829;28;20045;-79
2023/04/19 09:26:28;;;;;;;4.22;1.75;;;12.90;99.90;;;;;;5052508;28;20079;-79
2023/04/19 09:29:06;;;;;;;17.98;2.35;;;12.80;99.90;;;;;;5054360;28;20528;-80
2023/04/19 09:31:37;;;;;;;9.40;1.85;;;12.90;99.90;;;;;;5053644;28;20037;-79
2023/04/19 09:34:13;;;;;;;26.77;2.72;;;12.90;99.90;;;;;;5053174;28;20045;-79
2023/04/19 09:36:39;;;;;;;17.45;2.55;;;13.00;99.40;;;;;;5054505;28;20037;-79
2023/04/19 09:39:04;;;;;;;7.18;1.80;;;13.00;99.90;;;;;;5054134;28;20056;-79
2023/04/19 09:41:32;;;;;;;9.35;2.10;;;13.10;99.90;;;;;;5052855;28;20472;-79
2023/04/19 09:44:14;;;;;;;3.67;1.70;;;13.20;99.90;;;;;;5053395;28;20116;-80
2023/04/19 09:46:41;;;;;;;4.82;1.50;;;13.30;99.90;;;;;;5052527;28;20052;-79
2023/04/19 09:49:12;;;;;;;3.88;1.75;;;13.40;99.90;;;;;;5052744;28;20118;-78
2023/04/19 09:51:49;;;;;;;15.57;3.65;;;13.40;99.90;;;;;;5053626;28;20037;-79
2023/04/19 09:54:17;;;;;;;2.63;1.70;;;13.50;99.90;;;;;;5053172;28;20520;-79
2023/04/19 09:56:44;;;;;;;2.20;1.52;;;13.50;98.50;;;;;;5065673;28;20032;-79
2023/04/19 09:59:11;;;;;;;4.00;1.40;;;13.60;98.50;;;;;;5053360;28;20478;-78
2023/04/19 10:01:52;;;;;;;1.95;1.20;;;13.60;98.30;;;;;;5051978;28;20053;-77
2023/04/19 10:04:22;;;;;;;2.72;1.40;;;13.70;97.00;;;;;;5052546;28;20401;-79
2023/04/19 10:06:52;;;;;;;3.65;1.30;;;13.70;97.50;;;;;;5052727;28;20178;-79
2023/04/19 10:09:19;;;;;;;6.75;1.80;;;13.80;97.20;;;;;;5054143;28;20179;-80
2023/04/19 10:11:50;;;;;;;14.27;1.88;;;13.80;97.50;;;;;;5052845;28;20519;-80
2023/04/19 10:14:22;;;;;;;2.95;1.70;;;13.90;98.50;;;;;;5052640;28;20047;-80
2023/04/19 10:16:47;;;;;;;4.47;1.50;;;14.00;98.80;;;;;;5053854;28;20044;-79
2023/04/19 10:19:16;;;;;;;2.92;1.35;;;14.10;97.90;;;;;;5052077;28;20053;-78
2023/04/19 10:21:42;;;;;;;2.13;1.23;;;14.10;97.90;;;;;;5053014;28;20072;-78
2023/04/19 10:24:11;;;;;;;2.67;1.40;;;14.10;97.90;;;;;;5052787;28;20053;-78
2023/04/19 10:27:01;;;;;;;2.33;1.40;;;14.10;97.70;;;;;;5053238;28;20029;-79
2023/04/19 10:29:52;;;;;;;2.22;1.30;;;14.10;96.90;;;;;;5052415;28;20053;-79
2023/04/19 10:32:17;;;;;;;3.90;1.80;;;14.30;97.90;;;;;;5052305;28;20114;-81
2023/04/19 10:34:45;;;;;;;3.58;1.50;;;14.40;97.00;;;;;;5052849;28;20514;-79
2023/04/19 10:37:12;;;;;;;2.53;1.20;;;14.50;97.20;;;;;;5052934;28;20558;-80
2023/04/19 10:39:40;;;;;;;3.35;1.40;;;14.50;96.70;;;;;;5052175;28;20044;-77
2023/04/19 10:42:06;;;;;;;2.20;1.20;;;14.50;96.20;;;;;;5053572;28;20040;-78
2023/04/19 10:44:31;;;;;;;2.42;1.10;;;14.50;95.70;;;;;;5052848;28;20488;-78
2023/04/19 10:46:58;;;;;;;3.97;1.50;;;14.50;95.30;;;;;;5053087;28;20408;-78
2023/04/19 10:49:27;;;;;;;5.22;1.50;;;14.60;94.90;;;;;;5051057;28;20090;-78
2023/04/19 10:51:53;;;;;;;1.88;1.20;;;14.60;95.00;;;;;;5050968;28;20037;-79
2023/04/19 10:54:40;;;;;;;4.35;1.40;;;14.60;95.00;;;;;;5052350;28;20056;-78
2023/04/19 10:57:10;;;;;;;2.25;1.48;;;14.70;95.80;;;;;;5067847;28;20400;-78
2023/04/19 10:59:41;;;;;;;2.33;1.30;;;14.80;94.20;;;;;;5052207;28;20041;-80
2023/04/19 11:02:23;;;;;;;5.63;1.50;;;14.70;94.40;;;;;;5053598;28;20032;-79
2023/04/19 11:04:52;;;;;;;2.60;1.50;;;14.80;96.00;;;;;;5053039;28;20552;-78
2023/04/19 11:07:20;;;;;;;2.03;1.20;;;15.00;95.80;;;;;;5051483;28;20037;-80
2023/04/19 11:09:47;;;;;;;2.15;1.23;;;15.10;95.70;;;;;;5053521;28;20051;-79
2023/04/19 11:12:18;;;;;;;2.05;1.42;;;15.10;95.60;;;;;;5052972;28;20044;-80
2023/04/19 11:14:58;;;;;;;2.40;1.15;;;15.20;94.80;;;;;;5053838;28;20053;-78
2023/04/19 11:17:26;;;;;;;2.90;1.40;;;15.30;94.70;;;;;;5052523;28;20029;-79
2023/04/19 11:19:56;;;;;;;2.00;1.20;;;15.20;94.00;;;;;;5052381;28;20045;-80
2023/04/19 11:22:32;;;;;;;2.80;1.40;;;15.30;94.40;;;;;;5053270;28;20040;-79
2023/04/19 11:25:09;;;;;;;4.60;1.40;;;15.40;95.20;;;;;;5054335;28;20040;-79
2023/04/19 11:27:34;;;;;;;1.83;1.20;;;15.50;95.30;;;;;;5055020;28;20051;-79
2023/04/19 11:30:10;;;;;;;2.47;1.23;;;15.60;95.30;;;;;;5055053;28;20124;-79
2023/04/19 11:32:36;;;;;;;2.08;1.30;;;15.60;94.50;;;;;;5055496;28;20045;-83
2023/04/19 11:35:06;;;;;;;3.25;1.50;;;15.60;93.80;;;;;;5067072;28;20032;-80
2023/04/19 11:37:33;;;;;;;2.65;1.45;;;15.60;94.20;;;;;;5053149;28;20075;-80
2023/04/19 11:39:59;;;;;;;2.50;1.40;;;15.70;94.70;;;;;;5060731;28;20396;-79
2023/04/19 11:42:24;;;;;;;2.45;1.33;;;15.70;94.00;;;;;;5059534;28;20041;-80
2023/04/19 11:44:50;;;;;;;3.17;1.48;;;15.70;94.10;;;;;;5053929;28;20036;-80
2023/04/19 11:47:17;;;;;;;5.07;1.38;;;15.70;93.70;;;;;;5052514;28;20166;-79
2023/04/19 11:49:42;;;;;;;3.00;1.75;;;15.90;94.10;;;;;;5052986;28;20037;-80
2023/04/19 11:52:08;;;;;;;2.58;1.70;;;16.00;94.20;;;;;;5052557;28;20044;-80
2023/04/19 11:54:34;;;;;;;5.47;1.90;;;15.80;91.90;;;;;;5052284;28;20447;-80
2023/04/19 11:57:04;;;;;;;4.40;1.85;;;15.80;92.90;;;;;;5071250;28;20037;-82
2023/04/19 11:59:31;;;;;;;3.13;1.77;;;15.80;92.70;;;;;;5055745;28;20045;-79
2023/04/19 12:02:05;;;;;;;5.45;1.75;;;15.80;92.80;;;;;;5056085;28;20047;-79
2023/04/19 12:04:31;;;;;;;;;;;15.90;94.00;;;;;;5056103;28;20110;-80
2023/04/19 12:07:01;;;;;;;4.13;1.80;;;16.00;93.60;;;;;;5055613;28;19920;-79
2023/04/19 12:09:26;;;;;;;4.93;2.15;;;16.00;93.50;;;;;;5057551;28;20041;-80
2023/04/19 12:11:52;;;;;;;4.68;2.20;;;16.00;93.50;;;;;;5056760;28;20074;-78
2023/04/19 12:14:21;;;;;;;3.80;1.60;;;16.20;93.60;;;;;;5054417;28;20048;-80
2023/04/19 12:17:10;;;;;;;3.00;2.05;;;16.20;93.00;;;;;;5054970;28;20045;-80
2023/04/19 12:19:41;;;;;;;3.67;1.80;;;16.20;92.30;;;;;;5054702;28;20044;-79
2023/04/19 12:22:19;;;;;;;4.60;2.05;;;16.20;93.30;;;;;;5054653;28;20087;-79
2023/04/19 12:24:45;;;;;;;2.83;1.90;;;16.20;92.40;;;;;;5054941;28;20056;-78
2023/04/19 12:27:10;;;;;;;3.67;2.10;;;16.30;93.10;;;;;;5055900;28;20109;-79
2023/04/19 12:29:37;;;;;;;5.35;2.05;;;16.30;93.60;;;;;;5055849;28;20187;-82
2023/04/19 12:32:03;;;;;;;3.15;2.28;;;16.20;92.40;;;;;;5038829;28;20052;-81
2023/04/19 12:34:29;;;;;;;3.53;2.30;;;16.30;93.30;;;;;;5055201;28;20064;-79
2023/04/19 12:36:55;;;;;;;3.03;2.03;;;16.30;93.10;;;;;;5053878;28;20045;-79
2023/04/19 12:39:21;;;;;;;3.58;2.30;;;16.40;93.90;;;;;;5053866;28;20048;-80
2023/04/19 12:41:47;;;;;;;5.38;2.58;;;16.60;94.40;;;;;;5054144;28;20451;-81
2023/04/19 12:44:13;;;;;;;5.05;2.40;;;16.60;94.10;;;;;;5054573;28;20132;-81
2023/04/19 12:46:39;;;;;;;4.22;2.40;;;16.60;93.80;;;;;;5054964;28;20045;-79
2023/04/19 12:49:04;;;;;;;4.07;2.20;;;16.60;93.40;;;;;;5053499;28;20041;-80